Time;durP1;ratioP1;P1;durP2;ratioP2;P2;SDS_P1;SDS_P2;PMS_P1;PMS_P2;Temp;Humidity;BMP_temperature;BMP_pressure;BME280_temperature;BME280_humidity;BME280_pressure;Samples;Min_cycle;Max_cycle;Signal;HPM_P1;HPM_P2
2021/12/10 00:00:39;;;;;;;11.75;10.55;;;;;;;4.23;77.38;100142.19;4978507;28;20108;-85
2021/12/10 00:03:11;;;;;;;10.68;9.68;;;;;;;3.95;77.10;100109.09;4977043;28;20085;-84
2021/12/10 00:05:44;;;;;;;11.10;9.30;;;;;;;4.12;76.73;100125.47;4979065;28;20129;-83
2021/12/10 00:08:11;;;;;;;9.13;8.30;;;;;;;4.55;76.81;100212.69;4978521;28;20482;-84
2021/12/10 00:10:42;;;;;;;9.70;8.73;;;;;;;5.26;77.31;100313.75;4976019;28;20422;-84
2021/12/10 00:13:15;;;;;;;7.80;7.00;;;;;;;5.24;76.92;100315.69;4978312;28;20082;-84
2021/12/10 00:15:43;;;;;;;8.50;6.85;;;;;;;4.11;76.83;100127.28;4993417;28;20050;-84
2021/12/10 00:18:14;;;;;;;7.80;7.13;;;;;;;4.78;76.70;100245.25;4975547;28;20500;-83
2021/12/10 00:20:42;;;;;;;7.85;7.15;;;;;;;5.23;77.19;100323.66;4975846;28;20050;-84
2021/12/10 00:23:19;;;;;;;7.93;7.22;;;;;;;4.13;76.20;100137.69;4975298;28;20568;-84
2021/12/10 00:25:50;;;;;;;8.45;7.65;;;;;;;4.30;76.49;100171.50;4992817;28;20496;-84
2021/12/10 00:28:28;;;;;;;8.63;7.90;;;;;;;4.04;76.69;100155.75;4976438;28;20042;-85
2021/12/10 00:31:15;;;;;;;9.07;8.27;;;;;;;5.09;77.27;100327.28;4975930;28;20357;-85
2021/12/10 00:33:50;;;;;;;8.30;7.50;;;;;;;4.82;77.49;100290.59;4992849;28;20050;-85
2021/12/10 00:36:17;;;;;;;9.25;8.40;;;;;;;4.78;77.47;100291.75;4980219;28;20129;-83
2021/12/10 00:38:43;;;;;;;10.70;9.63;;;;;;;4.81;77.69;100308.16;4979359;28;20146;-87
2021/12/10 00:41:11;;;;;;;11.17;10.07;;;;;;;4.70;77.25;100289.66;4982857;28;20093;-85
2021/12/10 00:43:39;;;;;;;11.40;10.20;;;;;;;4.62;77.39;100281.47;4980331;28;20279;-84
2021/12/10 00:46:06;;;;;;;11.88;10.68;;;;;;;3.72;77.26;100125.59;4980855;28;20100;-84
2021/12/10 00:48:34;;;;;;;10.13;9.23;;;;;;;3.20;77.89;100044.22;4980800;28;20466;-85
2021/12/10 00:51:03;;;;;;;12.38;10.48;;;;;;;4.40;77.64;100243.50;4980414;28;20460;-83
2021/12/10 00:53:31;;;;;;;12.43;11.13;;;;;;;3.55;77.52;100108.38;4995283;28;20113;-83
2021/12/10 00:55:57;;;;;;;12.75;11.65;;;;;;;4.24;77.52;100224.47;4980655;28;20075;-86
2021/12/10 00:58:26;;;;;;;13.88;12.43;;;;;;;3.33;77.55;100080.13;4982193;28;20078;-86
2021/12/10 01:00:59;;;;;;;13.90;12.53;;;;;;;3.06;76.83;100049.53;4978150;28;20078;-85
2021/12/10 01:03:30;;;;;;;15.15;12.82;;;;;;;3.52;77.92;100106.81;4980525;28;20073;-84
2021/12/10 01:06:02;;;;;;;14.33;12.97;;;;;;;3.28;77.26;100082.22;4980774;28;20050;-85
2021/12/10 01:08:30;;;;;;;;;;;;;;;4.65;77.59;100302.28;4993833;28;20445;-86
2021/12/10 01:11:14;;;;;;;14.53;13.13;;;;;;;3.76;77.53;100158.56;4980059;28;20008;-85
2021/12/10 01:13:45;;;;;;;16.50;14.77;;;;;;;3.52;77.33;100130.41;4980628;28;20050;-85
2021/12/10 01:24:50;;;;;;;16.17;14.47;;;;;;;4.27;77.81;100284.69;4978862;28;20043;-86
2021/12/10 01:27:29;;;;;;;18.83;15.00;;;;;;;3.73;77.56;100193.75;4976940;28;20062;-86
2021/12/10 01:30:00;;;;;;;17.03;15.23;;;;;;;3.56;77.80;100155.50;4978936;28;20047;-88
2021/12/10 01:32:31;;;;;;;16.50;14.87;;;;;;;4.17;77.84;100270.50;4978309;28;20477;-84
2021/12/10 01:34:58;;;;;;;17.40;15.70;;;;;;;3.70;77.65;100193.13;4980677;28;20460;-85
2021/12/10 01:37:25;;;;;;;16.80;15.07;;;;;;;2.71;77.72;100030.88;4978101;28;20070;-83
2021/12/10 01:39:55;;;;;;;18.30;15.93;;;;;;;3.07;77.26;100101.03;4994390;28;20054;-86
2021/12/10 01:44:55;;;;;;;17.33;15.70;;;;;;;3.69;78.12;100186.19;4977815;28;20152;-84
2021/12/10 01:47:30;;;;;;;16.90;15.17;;;;;;;3.99;77.57;100236.66;4996303;28;20331;-85
2021/12/10 01:49:57;;;;;;;16.40;14.73;;;;;;;2.91;77.77;100061.00;4975787;28;20394;-86
2021/12/10 01:52:26;;;;;;;14.87;13.37;;;;;;;2.75;77.14;100041.06;4979951;28;20121;-86
2021/12/10 01:55:00;;;;;;;13.90;11.60;;;;;;;4.17;77.99;100263.44;4979694;28;20078;-87
2021/12/10 01:57:32;;;;;;;15.20;13.60;;;;;;;4.21;77.62;100275.44;4979297;28;20090;-84
2021/12/10 01:59:59;;;;;;;16.00;14.40;;;;;;;3.61;77.01;100177.03;4996699;28;20144;-84
2021/12/10 02:02:30;;;;;;;15.80;14.20;;;;;;;2.71;77.59;100028.25;4990100;28;20055;-84
2021/12/10 02:04:57;;;;;;;16.57;14.87;;;;;;;4.16;77.70;100284.59;4960163;28;20153;-84
2021/12/10 02:07:26;;;;;;;18.57;16.23;;;;;;;2.71;76.88;100036.13;4975897;28;20477;-85
2021/12/10 02:09:55;;;;;;;17.30;15.50;;;;;;;4.00;77.48;100246.19;4958137;28;20047;-85
2021/12/10 02:12:23;;;;;;;18.20;16.30;;;;;;;2.91;76.63;100080.22;4955056;28;20054;-85
2021/12/10 02:14:59;;;;;;;19.23;16.67;;;;;;;2.96;77.08;100082.53;4950990;29;20185;-84
2021/12/10 02:17:29;;;;;;;19.07;16.07;;;;;;;3.97;77.31;100254.28;4951494;28;20146;-85
2021/12/10 02:19:56;;;;;;;17.20;15.60;;;;;;;3.09;76.87;100109.66;4950780;28;20539;-84
2021/12/10 02:22:24;;;;;;;18.58;16.08;;;;;;;3.32;77.11;100150.09;4949906;29;20449;-85
2021/12/10 02:24:51;;;;;;;17.63;15.33;;;;;;;3.95;77.27;100250.09;4949945;29;20571;-86
2021/12/10 02:27:17;;;;;;;19.87;17.80;;;;;;;3.27;76.89;100127.72;4949661;29;20151;-86
2021/12/10 02:29:44;;;;;;;17.95;16.05;;;;;;;3.36;77.20;100156.00;4965741;28;20130;-86
2021/12/10 02:32:11;;;;;;;17.40;15.55;;;;;;;3.67;77.41;100225.69;4950321;29;20450;-86
2021/12/10 02:34:38;;;;;;;13.60;12.30;;;;;;;3.38;77.59;100182.97;4949752;29;20441;-84
2021/12/10 02:37:05;;;;;;;11.90;10.63;;;;;;;3.57;78.00;100208.84;4949851;29;20053;-84
2021/12/10 02:39:32;;;;;;;10.57;9.50;;;;;;;3.69;77.57;100228.19;4949777;29;20275;-85
2021/12/10 02:41:59;;;;;;;12.20;10.90;;;;;;;3.64;77.90;100231.09;4949247;29;20059;-85
2021/12/10 02:44:29;;;;;;;12.57;11.33;;;;;;;2.69;77.49;100096.47;4949100;29;20142;-84
2021/12/10 02:46:57;;;;;;;8.20;6.93;;;;;;;3.41;78.06;100216.88;4949017;29;20053;-86
2021/12/10 02:49:24;;;;;;;6.83;6.13;;;;;;;2.67;77.98;100087.91;4951003;28;20737;-86
2021/12/10 02:51:52;;;;;;;5.87;5.27;;;;;;;2.19;78.25;99990.53;4949078;29;21146;-84
2021/12/10 02:54:23;;;;;;;6.40;5.77;;;;;;;2.77;78.56;100083.75;4950780;28;20101;-86
2021/12/10 02:56:51;;;;;;;6.20;5.50;;;;;;;3.57;77.99;100214.94;4950898;29;20141;-84
2021/12/10 02:59:18;;;;;;;6.17;5.53;;;;;;;3.51;78.16;100204.84;4949627;28;20470;-85
2021/12/10 03:01:49;;;;;;;6.10;5.50;;;;;;;3.40;77.64;100191.59;4952959;28;20067;-84
2021/12/10 03:04:16;;;;;;;6.47;5.63;;;;;;;2.88;78.52;100092.69;4972435;28;20046;-84
2021/12/10 03:06:53;;;;;;;5.50;4.57;;;;;;;2.83;77.94;100068.56;4988938;28;20042;-86
2021/12/10 03:09:23;;;;;;;6.13;5.07;;;;;;;3.47;77.94;100173.63;4977425;28;20373;-84
2021/12/10 03:11:52;;;;;;;5.73;5.23;;;;;;;3.62;78.28;100189.22;4989606;28;20058;-85
2021/12/10 03:14:23;;;;;;;5.07;4.57;;;;;;;3.31;77.57;100139.72;4971393;28;20145;-85
2021/12/10 03:16:51;;;;;;;5.43;4.90;;;;;;;3.46;77.78;100159.69;4971958;28;20058;-85
2021/12/10 03:19:18;;;;;;;4.97;4.47;;;;;;;3.37;77.60;100145.41;4972244;28;20398;-84
2021/12/10 03:21:47;;;;;;;5.23;4.83;;;;;;;3.41;78.36;100132.91;4971798;28;20298;-86
2021/12/10 03:24:17;;;;;;;5.30;4.80;;;;;;;1.88;78.08;99877.31;4971276;28;20137;-85
2021/12/10 03:26:45;;;;;;;5.23;4.73;;;;;;;3.55;78.33;100155.63;4971337;28;20101;-82
2021/12/10 03:29:12;;;;;;;5.20;4.80;;;;;;;3.06;78.08;100083.63;4971563;28;20136;-85
2021/12/10 03:31:39;;;;;;;5.93;4.57;;;;;;;3.45;77.45;100162.41;4987482;28;20080;-83
2021/12/10 03:34:07;;;;;;;4.40;4.00;;;;;;;2.64;77.50;100014.69;4972054;28;20065;-85
2021/12/10 03:36:33;;;;;;;4.33;4.03;;;;;;;2.31;77.48;99949.63;4989255;28;20492;-86
2021/12/10 03:39:01;;;;;;;5.17;4.60;;;;;;;2.38;77.42;99974.50;4972573;28;20050;-87
2021/12/10 03:41:27;;;;;;;4.80;4.40;;;;;;;2.14;77.51;99925.38;4989901;28;20132;-84
2021/12/10 03:43:54;;;;;;;4.87;4.37;;;;;;;2.58;77.72;100015.13;4988815;28;20077;-84
2021/12/10 03:46:23;;;;;;;6.10;5.10;;;;;;;2.49;78.10;99992.13;4988115;28;20038;-87
2021/12/10 03:48:49;;;;;;;6.07;4.93;;;;;;;3.31;77.73;100129.22;4986555;28;20050;-84
2021/12/10 03:51:20;;;;;;;5.70;5.18;;;;;;;2.77;77.93;100036.56;4987883;28;20090;-85
2021/12/10 03:53:48;;;;;;;5.03;4.63;;;;;;;3.47;76.93;100127.25;4971191;28;20519;-84
2021/12/10 03:56:18;;;;;;;5.57;5.07;;;;;;;3.29;77.71;100092.59;4988242;28;20062;-84
2021/12/10 03:58:46;;;;;;;5.97;5.00;;;;;;;3.52;77.40;100133.03;4988126;28;20046;-86
2021/12/10 04:01:16;;;;;;;6.60;5.90;;;;;;;2.65;77.63;99984.94;4971149;28;20050;-85
2021/12/10 04:03:44;;;;;;;6.17;5.57;;;;;;;1.88;77.03;99855.53;4970715;28;20069;-86
2021/12/10 04:06:12;;;;;;;6.53;5.90;;;;;;;2.77;77.52;100010.34;4970738;28;20051;-85
2021/12/10 04:08:39;;;;;;;7.67;6.83;;;;;;;2.10;76.62;99883.75;4971110;28;20682;-85
2021/12/10 04:11:08;;;;;;;7.53;6.87;;;;;;;3.08;76.29;100047.63;4989022;28;20064;-84
2021/12/10 04:13:36;;;;;;;7.87;7.07;;;;;;;2.93;76.20;100036.38;4971615;28;20142;-85
2021/12/10 04:16:03;;;;;;;7.07;6.47;;;;;;;2.72;76.69;100007.19;4970630;28;20125;-83
2021/12/10 04:18:31;;;;;;;6.63;6.03;;;;;;;3.43;76.85;100131.88;4987725;28;20062;-85
2021/12/10 04:20:58;;;;;;;8.07;7.30;;;;;;;1.60;76.37;99839.00;4987619;28;20129;-85
2021/12/10 04:23:25;;;;;;;8.57;7.50;;;;;;;1.79;77.37;99866.59;4970062;28;20464;-83
2021/12/10 04:25:52;;;;;;;8.87;8.00;;;;;;;2.83;76.97;100039.72;4969963;28;20408;-85
2021/12/10 04:28:21;;;;;;;10.67;7.77;;;;;;;2.22;76.71;99901.28;4987584;28;20318;-86
2021/12/10 04:30:49;;;;;;;9.67;8.30;;;;;;;2.93;76.37;100019.81;4970135;28;20384;-85
2021/12/10 04:33:22;;;;;;;11.00;8.80;;;;;;;3.34;76.38;100105.41;4970686;28;20081;-85
2021/12/10 04:35:52;;;;;;;9.43;8.50;;;;;;;2.73;76.63;100019.34;4970494;28;20062;-83
2021/12/10 04:38:20;;;;;;;11.37;9.40;;;;;;;1.73;76.46;99875.69;4970444;28;20112;-84
2021/12/10 04:40:49;;;;;;;10.47;9.27;;;;;;;2.37;76.90;99966.72;4970090;28;20202;-84
2021/12/10 04:43:19;;;;;;;12.37;10.17;;;;;;;3.28;76.76;100108.44;4987781;28;20077;-85
2021/12/10 04:45:47;;;;;;;11.03;9.47;;;;;;;2.83;76.34;100040.56;4969824;28;20050;-85
2021/12/10 04:48:14;;;;;;;10.77;9.63;;;;;;;2.30;76.28;99951.38;4969586;28;20133;-88
2021/12/10 04:50:41;;;;;;;11.27;10.17;;;;;;;2.84;75.86;100023.91;4969980;28;20141;-85
2021/12/10 04:53:09;;;;;;;10.60;9.50;;;;;;;2.20;75.89;99911.03;4987654;28;20258;-84
2021/12/10 04:55:37;;;;;;;12.37;11.07;;;;;;;3.37;76.10;100123.56;4970146;28;20053;-84
2021/12/10 04:58:05;;;;;;;10.93;9.50;;;;;;;2.27;76.47;99948.97;4969687;28;20054;-85
2021/12/10 05:00:36;;;;;;;10.73;9.70;;;;;;;1.66;76.66;99863.91;4970199;28;20567;-86
2021/12/10 05:03:05;;;;;;;11.00;9.90;;;;;;;1.54;76.00;99859.47;4969777;28;20058;-85
2021/12/10 05:05:33;;;;;;;12.90;9.97;;;;;;;2.98;76.55;100112.94;4970430;28;20114;-85
2021/12/10 05:08:00;;;;;;;9.83;8.90;;;;;;;3.02;77.03;100113.59;4991508;28;20042;-86
2021/12/10 05:10:27;;;;;;;11.37;10.17;;;;;;;2.88;77.71;100100.56;4973235;28;20050;-85
2021/12/10 05:12:55;;;;;;;11.70;9.00;;;;;;;3.07;77.45;100101.03;4969798;28;20101;-85
2021/12/10 05:15:24;;;;;;;9.23;8.07;;;;;;;3.04;76.45;100098.63;4969771;28;20432;-86
2021/12/10 05:17:53;;;;;;;8.40;7.60;;;;;;;3.25;76.72;100140.09;4970061;28;20046;-84
2021/12/10 05:20:39;;;;;;;13.63;9.60;;;;;;;3.25;76.62;100150.59;4970087;28;20050;-84
2021/12/10 05:23:20;;;;;;;12.03;9.47;;;;;;;2.38;76.33;100033.88;4987745;28;20058;-84
2021/12/10 05:25:47;;;;;;;13.47;10.30;;;;;;;1.57;76.32;99898.50;4973815;28;20325;-84
2021/12/10 05:28:14;;;;;;;10.73;9.63;;;;;;;2.18;76.76;99999.31;4973453;28;20145;-84
2021/12/10 05:30:42;;;;;;;11.87;10.10;;;;;;;2.81;77.21;100099.28;4973386;28;20078;-84
2021/12/10 05:33:15;;;;;;;11.10;10.00;;;;;;;3.08;77.44;100149.06;4973474;28;20058;-83
2021/12/10 05:35:42;;;;;;;13.57;11.13;;;;;;;1.91;77.32;99962.66;4991078;28;20133;-84
2021/12/10 05:38:08;;;;;;;13.37;12.07;;;;;;;1.30;76.92;99873.13;4990802;28;20566;-84
2021/12/10 05:40:35;;;;;;;14.23;12.27;;;;;;;2.31;76.87;100050.00;4973102;28;20046;-83
2021/12/10 05:43:03;;;;;;;16.20;13.37;;;;;;;1.78;77.70;99962.59;4972954;28;20512;-84
2021/12/10 05:45:31;;;;;;;15.30;13.60;;;;;;;2.54;77.81;100097.47;4973206;28;20241;-83
2021/12/10 05:47:58;;;;;;;14.97;12.90;;;;;;;2.90;77.40;100157.19;4972426;28;20138;-84
2021/12/10 05:50:27;;;;;;;15.13;13.03;;;;;;;2.23;77.71;100061.88;4990258;28;20046;-85
2021/12/10 05:52:55;;;;;;;14.63;12.80;;;;;;;2.88;77.51;100179.22;4973346;28;20400;-83
2021/12/10 05:55:22;;;;;;;14.43;12.93;;;;;;;1.08;77.53;99888.47;4973212;28;20082;-85
2021/12/10 05:57:49;;;;;;;13.20;11.93;;;;;;;2.81;77.87;100178.75;4990321;28;20089;-84
2021/12/10 06:00:32;;;;;;;13.80;11.93;;;;;;;1.57;77.71;99974.38;4973322;28;20116;-87
2021/12/10 06:02:59;;;;;;;13.37;11.97;;;;;;;2.74;77.87;100178.31;4972770;28;20084;-84
2021/12/10 06:05:28;;;;;;;13.63;11.97;;;;;;;2.81;78.30;100185.78;4989649;28;20054;-83
2021/12/10 06:07:54;;;;;;;18.97;16.97;;;;;;;2.82;78.27;100184.84;4972288;28;20530;-85
2021/12/10 06:10:22;;;;;;;14.23;12.00;;;;;;;2.68;77.86;100168.19;4991888;28;20234;-85
2021/12/10 06:12:50;;;;;;;13.87;12.03;;;;;;;2.61;77.84;100151.19;4991048;28;20053;-84
2021/12/10 06:15:19;;;;;;;14.07;12.50;;;;;;;2.58;77.94;100159.25;4994732;28;20050;-82
2021/12/10 06:17:46;;;;;;;12.77;11.57;;;;;;;2.83;78.42;100178.66;4974666;28;20202;-86
2021/12/10 06:20:17;;;;;;;12.90;11.60;;;;;;;2.14;78.47;100060.72;4992847;28;20058;-85
2021/12/10 06:22:44;;;;;;;13.67;12.33;;;;;;;1.18;77.72;99885.19;4976371;28;20050;-84
2021/12/10 06:25:11;;;;;;;15.40;12.97;;;;;;;1.29;78.00;99897.63;4993675;28;20085;-85
2021/12/10 06:27:44;;;;;;;13.27;11.87;;;;;;;2.10;77.78;100025.16;4974441;28;20050;-83
2021/12/10 06:30:17;;;;;;;15.70;11.87;;;;;;;1.62;77.46;99933.06;4990908;28;20388;-82
2021/12/10 06:32:46;;;;;;;12.70;11.40;;;;;;;2.94;77.46;100131.63;4988065;28;20508;-83
2021/12/10 06:35:14;;;;;;;13.00;11.63;;;;;;;1.83;77.43;99934.34;4987411;28;20479;-85
2021/12/10 06:37:42;;;;;;;12.60;11.03;;;;;;;1.66;76.77;99900.56;4987719;28;20082;-85
2021/12/10 06:40:12;;;;;;;15.43;10.57;;;;;;;3.09;77.21;100142.91;4987565;28;20054;-84
2021/12/10 06:42:39;;;;;;;12.63;11.33;;;;;;;2.32;77.33;100008.94;4987749;28;20554;-85
2021/12/10 06:45:09;;;;;;;12.80;11.40;;;;;;;2.77;77.32;100056.69;5003894;28;20051;-85
2021/12/10 06:47:37;;;;;;;12.20;10.90;;;;;;;2.76;76.56;100052.38;4988572;28;20139;-86
2021/12/10 06:50:05;;;;;;;13.43;11.17;;;;;;;2.04;77.44;99926.03;4987460;28;20263;-85
2021/12/10 06:52:32;;;;;;;13.97;12.40;;;;;;;2.56;76.97;100001.25;4987069;28;20599;-84
2021/12/10 06:54:59;;;;;;;14.33;12.10;;;;;;;2.78;76.54;100022.50;4987399;28;20042;-85
2021/12/10 06:57:26;;;;;;;13.17;11.87;;;;;;;3.52;76.58;100132.19;4981368;28;20112;-86
2021/12/10 06:59:53;;;;;;;15.60;14.20;;;;;;;3.31;77.21;100084.63;4970844;28;20055;-84
2021/12/10 07:02:19;;;;;;;14.00;12.60;;;;;;;2.09;77.31;99882.09;4971031;28;20412;-85
2021/12/10 07:04:46;;;;;;;13.83;12.17;;;;;;;2.86;77.00;100003.63;4970475;28;20064;-84
2021/12/10 07:07:14;;;;;;;15.03;13.43;;;;;;;2.61;76.93;99945.94;4971482;28;20407;-85
2021/12/10 07:09:41;;;;;;;13.77;12.37;;;;;;;3.32;77.02;100060.06;4992181;28;20172;-85
2021/12/10 07:12:08;;;;;;;15.40;13.20;;;;;;;3.35;76.91;100052.81;4988390;28;20046;-84
2021/12/10 07:14:36;;;;;;;19.23;13.60;;;;;;;3.02;76.70;100000.84;4988552;28;20141;-85
2021/12/10 07:17:03;;;;;;;21.57;15.13;;;;;;;2.99;76.74;99974.84;4971009;28;20480;-84
2021/12/10 07:19:30;;;;;;;33.50;13.83;;;;;;;3.71;76.57;100084.53;4970968;28;20089;-85
2021/12/10 07:21:57;;;;;;;30.17;14.53;;;;;;;2.72;76.28;99928.56;4987083;28;20138;-84
2021/12/10 07:24:24;;;;;;;17.03;13.20;;;;;;;3.15;76.18;100020.03;4987967;28;20054;-85
2021/12/10 07:26:50;;;;;;;12.47;10.47;;;;;;;3.82;75.82;100093.34;4970675;28;20107;-84
2021/12/10 07:29:18;;;;;;;13.97;11.80;;;;;;;2.92;75.26;99931.63;4987183;28;20381;-85
2021/12/10 07:31:45;;;;;;;12.37;10.73;;;;;;;2.82;75.72;99925.31;4970973;28;20042;-86
2021/12/10 07:34:13;;;;;;;10.03;9.10;;;;;;;2.22;75.66;99809.63;4970613;28;20089;-85
2021/12/10 07:36:40;;;;;;;12.90;10.30;;;;;;;2.40;75.81;99843.38;4988351;28;20104;-84
2021/12/10 07:39:09;;;;;;;15.00;10.57;;;;;;;3.55;75.29;100027.84;4970737;28;20117;-84
2021/12/10 07:41:36;;;;;;;10.63;9.53;;;;;;;2.32;75.65;99842.13;4970798;28;20823;-87
2021/12/10 07:44:04;;;;;;;10.63;9.63;;;;;;;3.75;76.40;100093.88;4987806;28;20448;-85
2021/12/10 07:46:32;;;;;;;9.40;8.50;;;;;;;2.68;75.93;99916.59;4987823;28;20483;-83
2021/12/10 07:48:59;;;;;;;11.27;8.97;;;;;;;3.33;76.19;100004.03;4988234;28;20124;-81
2021/12/10 07:51:29;;;;;;;8.97;8.13;;;;;;;2.91;76.75;99924.69;4987932;28;20058;-86
2021/12/10 07:53:57;;;;;;;7.47;6.80;;;;;;;3.06;76.07;99941.16;4970686;28;20054;-87
2021/12/10 07:56:28;;;;;;;8.07;7.37;;;;;;;2.84;75.48;99890.19;4970284;28;20058;-86
2021/12/10 07:58:55;;;;;;;8.37;6.03;;;;;;;2.60;74.45;99842.03;4987916;28;20109;-84
2021/12/10 08:01:25;;;;;;;5.93;5.43;;;;;;;3.03;75.10;99895.00;4970373;28;20241;-84
2021/12/10 08:03:53;;;;;;;9.17;4.97;;;;;;;3.27;74.61;99925.72;4970163;28;20065;-86
2021/12/10 08:06:22;;;;;;;5.77;4.77;;;;;;;2.78;74.73;99828.53;4988022;28;20114;-84
2021/12/10 08:08:49;;;;;;;6.10;5.07;;;;;;;3.34;74.19;99892.88;4986867;28;20282;-83
2021/12/10 08:11:17;;;;;;;6.23;5.73;;;;;;;4.28;74.53;99994.72;4970353;28;20089;-83
2021/12/10 08:13:44;;;;;;;6.80;6.07;;;;;;;4.60;74.25;100012.56;4987650;28;20047;-86
2021/12/10 08:16:11;;;;;;;5.90;5.40;;;;;;;4.04;72.78;99929.84;4987420;28;20113;-85
2021/12/10 08:18:38;;;;;;;6.07;5.47;;;;;;;4.64;71.92;100027.16;4988134;28;20061;-86
2021/12/10 08:21:06;;;;;;;7.83;6.20;;;;;;;3.70;72.43;99872.84;4988396;28;20092;-86
2021/12/10 08:23:36;;;;;;;7.22;6.53;;;;;;;4.63;73.21;100049.97;4988762;28;20053;-83
2021/12/10 08:26:05;;;;;;;6.03;5.53;;;;;;;4.36;73.74;100005.50;4971402;28;20073;-84
2021/12/10 08:28:33;;;;;;;8.23;6.10;;;;;;;4.13;74.50;99975.66;4974731;28;20082;-88
2021/12/10 08:31:01;;;;;;;7.20;5.45;;;;;;;4.52;74.61;100038.56;4989182;28;20084;-83
2021/12/10 08:33:28;;;;;;;6.47;5.83;;;;;;;4.51;73.93;100042.97;4975318;28;20279;-86
2021/12/10 08:35:59;;;;;;;5.90;5.40;;;;;;;3.38;73.41;99852.38;4980952;28;20525;-85
2021/12/10 08:38:27;;;;;;;5.50;4.90;;;;;;;3.71;73.98;99890.25;4970657;28;20065;-85
2021/12/10 08:41:15;;;;;;;6.28;5.68;;;;;;;4.35;73.54;99990.69;4969243;28;20183;-85
2021/12/10 08:43:43;;;;;;;7.67;5.87;;;;;;;3.49;73.63;99802.56;4983140;28;20293;-84
2021/12/10 08:46:12;;;;;;;6.38;5.82;;;;;;;4.74;73.01;99980.81;4988498;28;20378;-86
2021/12/10 08:48:39;;;;;;;7.10;6.40;;;;;;;4.75;72.70;99985.13;4989552;28;20053;-85
2021/12/10 08:51:16;;;;;;;7.00;6.30;;;;;;;4.66;72.56;99977.91;4989578;28;20786;-84
2021/12/10 08:53:43;;;;;;;7.73;6.97;;;;;;;4.34;73.04;99936.44;5007498;28;20237;-83
2021/12/10 08:56:10;;;;;;;7.90;7.10;;;;;;;4.78;72.98;100005.94;4990139;28;20132;-85
2021/12/10 08:58:36;;;;;;;8.83;7.93;;;;;;;4.66;72.80;99989.28;5010821;28;20050;-84
2021/12/10 09:01:06;;;;;;;9.57;8.73;;;;;;;4.60;73.28;99981.84;4993208;28;20065;-84
2021/12/10 09:03:44;;;;;;;8.80;7.90;;;;;;;4.77;73.37;100001.63;4989229;28;20138;-85
2021/12/10 09:06:11;;;;;;;9.25;8.35;;;;;;;4.99;72.87;99994.75;4989375;28;20166;-84
2021/12/10 09:08:38;;;;;;;9.37;8.47;;;;;;;5.13;73.03;99973.50;4990549;28;20061;-83
2021/12/10 09:11:07;;;;;;;8.20;6.80;;;;;;;4.74;72.42;99870.38;4975600;28;20485;-84
2021/12/10 09:13:34;;;;;;;10.40;9.40;;;;;;;5.42;72.10;99991.50;4969581;28;20055;-85
2021/12/10 09:16:04;;;;;;;14.60;12.13;;;;;;;5.19;71.19;99962.50;4985666;28;20106;-83
2021/12/10 09:18:38;;;;;;;;;;;;;;;5.40;70.56;99988.16;4969962;28;20055;-84
2021/12/10 09:21:08;;;;;;;13.85;11.52;;;;;;;5.28;71.07;99990.75;4970826;28;19961;-83
2021/12/10 09:23:35;;;;;;;13.88;12.18;;;;;;;4.96;70.57;99940.59;4969897;28;20711;-83
2021/12/10 09:26:07;;;;;;;15.38;13.57;;;;;;;5.33;71.79;99985.13;4969654;28;20047;-85
2021/12/10 09:28:35;;;;;;;15.98;14.38;;;;;;;3.77;70.99;99735.78;4985475;28;20054;-82
2021/12/10 09:31:04;;;;;;;17.60;15.38;;;;;;;4.71;71.37;99839.06;4985305;28;20054;-83
2021/12/10 09:33:31;;;;;;;16.70;15.02;;;;;;;5.46;70.35;99982.38;4985884;28;20118;-83
2021/12/10 09:35:58;;;;;;;15.95;13.63;;;;;;;5.16;71.12;99949.59;4969714;28;20058;-86
2021/12/10 09:38:25;;;;;;;14.75;12.90;;;;;;;5.42;71.97;99952.84;4985838;28;20416;-83
2021/12/10 09:41:02;;;;;;;18.58;16.60;;;;;;;5.18;71.66;99905.59;4971147;28;20508;-83
2021/12/10 09:43:31;;;;;;;12.70;11.40;;;;;;;5.44;71.68;99905.34;4971102;28;20047;-83
2021/12/10 09:46:01;;;;;;;19.80;17.77;;;;;;;4.45;70.70;99765.66;4970037;28;20047;-83
2021/12/10 09:48:28;;;;;;;22.58;19.77;;;;;;;4.60;69.23;99752.28;4970723;28;20148;-86
2021/12/10 09:50:57;;;;;;;21.50;19.20;;;;;;;6.03;69.59;99946.38;4986228;28;20078;-84
2021/12/10 09:53:27;;;;;;;18.45;16.50;;;;;;;6.07;70.11;99953.91;4969825;28;20122;-85
2021/12/10 09:55:54;;;;;;;20.27;18.23;;;;;;;5.83;68.95;99937.41;4970639;28;20517;-85
2021/12/10 09:58:22;;;;;;;16.20;14.63;;;;;;;5.35;69.88;99839.28;4970949;28;20051;-85
2021/12/10 10:00:53;;;;;;;22.80;20.40;;;;;;;5.08;70.37;99791.50;4969530;28;20138;-83
2021/12/10 10:03:26;;;;;;;23.45;21.00;;;;;;;4.82;69.25;99728.59;4984880;28;20408;-84
2021/12/10 10:05:53;;;;;;;;;;;;;;;6.18;69.76;99898.50;4985385;28;20065;-85
2021/12/10 10:08:24;;;;;;;24.48;21.30;;;;;;;5.88;69.41;99792.97;4968736;28;19929;-84
2021/12/10 10:11:01;;;;;;;23.23;20.85;;;;;;;5.15;67.74;99653.22;4969259;28;20417;-84
2021/12/10 10:13:33;;;;;;;22.35;20.00;;;;;;;5.32;68.14;99700.06;4970737;28;20109;-85
2021/12/10 10:16:00;;;;;;;23.50;21.20;;;;;;;5.99;67.59;99792.94;4968793;28;20109;-86
2021/12/10 10:18:29;;;;;;;20.42;18.45;;;;;;;5.56;67.93;99757.78;4985850;28;20054;-84
2021/12/10 10:21:01;;;;;;;21.88;19.55;;;;;;;5.19;68.92;99691.47;4969642;28;20195;-86
2021/12/10 10:23:29;;;;;;;25.10;19.70;;;;;;;5.87;69.58;99828.16;4985553;28;20117;-85
2021/12/10 10:25:58;;;;;;;22.55;19.15;;;;;;;4.42;68.72;99584.56;4977438;28;20039;-85
2021/12/10 10:28:25;;;;;;;20.10;17.83;;;;;;;5.21;69.13;99670.31;4965986;28;20059;-83
2021/12/10 10:31:02;;;;;;;20.08;16.70;;;;;;;4.61;69.19;99580.44;4951175;28;20146;-82
2021/12/10 10:33:32;;;;;;;18.10;16.05;;;;;;;6.26;69.25;99825.88;4966258;28;20630;-82
2021/12/10 10:36:06;;;;;;;19.67;17.63;;;;;;;5.77;69.19;99738.53;4965928;28;20517;-84
2021/12/10 10:38:34;;;;;;;18.75;16.88;;;;;;;6.17;69.99;99841.50;4956332;28;20079;-83
2021/12/10 10:41:06;;;;;;;20.90;18.70;;;;;;;5.13;70.14;99681.47;4971492;28;20077;-83
2021/12/10 10:43:33;;;;;;;20.88;16.90;;;;;;;5.48;70.57;99749.63;4954767;29;20052;-83
2021/12/10 10:46:00;;;;;;;19.25;16.92;;;;;;;6.25;70.76;99826.84;4952002;28;20143;-82
2021/12/10 10:48:28;;;;;;;20.70;18.60;;;;;;;4.78;70.39;99613.28;4973296;28;20047;-83
2021/12/10 10:51:11;;;;;;;22.13;19.77;;;;;;;5.90;70.26;99785.78;4967063;28;20063;-83
2021/12/10 10:53:44;;;;;;;21.80;18.67;;;;;;;6.01;70.87;99841.06;4951729;29;20160;-85
2021/12/10 10:56:15;;;;;;;21.48;18.50;;;;;;;5.82;71.92;99822.44;4964665;28;20146;-83
2021/12/10 10:58:47;;;;;;;22.50;20.05;;;;;;;5.38;72.17;99768.94;4950254;28;20074;-84
2021/12/10 11:01:29;;;;;;;21.95;19.65;;;;;;;5.73;72.25;99821.41;4948259;29;20562;-83
2021/12/10 11:04:26;;;;;;;18.65;16.67;;;;;;;5.50;72.96;99762.69;4965291;28;20055;-84
2021/12/10 11:06:56;;;;;;;;;;;;;;;6.04;72.05;99814.47;4968394;28;20046;-83
2021/12/10 11:09:27;;;;;;;20.88;18.30;;;;;;;5.16;71.30;99665.41;4968592;28;20012;-83
2021/12/10 11:12:01;;;;;;;18.67;16.67;;;;;;;5.60;71.21;99747.81;4969821;28;20121;-84
2021/12/10 11:14:32;;;;;;;16.58;14.88;;;;;;;5.91;71.94;99819.06;4968143;28;20321;-83
2021/12/10 11:17:29;;;;;;;18.48;14.07;;;;;;;5.87;71.26;99818.44;4984736;28;20464;-83
2021/12/10 11:20:10;;;;;;;16.70;14.30;;;;;;;5.84;72.04;99812.63;4945710;28;20545;-82
2021/12/10 11:22:50;;;;;;;18.60;15.90;;;;;;;5.16;72.33;99712.78;4929466;29;20079;-82
2021/12/10 11:25:21;;;;;;;16.58;14.88;;;;;;;4.76;72.63;99638.84;4929191;29;20239;-83
2021/12/10 11:27:50;;;;;;;17.17;15.50;;;;;;;5.77;73.42;99807.00;4929160;29;20044;-82
2021/12/10 11:30:25;;;;;;;18.73;16.80;;;;;;;5.03;74.04;99701.56;4930263;28;20138;-85
2021/12/10 11:33:42;;;;;;;;;;;;;;;;;;;;;
2021/12/10 11:36:27;;;;;;;19.33;14.48;;;;;;;5.59;74.36;99783.00;4954248;28;20419;-84
2021/12/10 11:38:57;;;;;;;18.48;14.75;;;;;;;3.62;74.36;99462.16;4951986;29;20047;-83
2021/12/10 11:41:27;;;;;;;18.05;16.17;;;;;;;5.22;75.55;99716.69;4950199;28;20054;-82
2021/12/10 11:44:06;;;;;;;17.98;16.08;;;;;;;4.25;76.05;99564.06;4950358;28;20074;-86
2021/12/10 11:54:36;;;;;;;16.65;14.32;;;;;;;4.59;74.55;99517.50;4978753;28;20437;-85
2021/12/10 12:05:49;;;;;;;17.70;15.90;;;;;;;5.82;76.86;99761.84;4853935;29;20057;-83
2021/12/10 12:09:38;;;;;;;;;;;;;;;;;;;;;
2021/12/10 12:16:42;;;;;;;19.27;17.10;;;;;;;4.86;76.52;99576.69;4723386;30;20543;-87